sensor_id;sensor_type;location;lat;lon;timestamp;pressure;altitude;pressure_sealevel;temperature;humidity
48624;BME280;34422;45.802;16.114;2023-04-15T00:00:21;99126.06;;;7.20;100.00
48624;BME280;34422;45.802;16.114;2023-04-15T00:02:47;99128.69;;;7.26;100.00
48624;BME280;34422;45.802;16.114;2023-04-15T00:05:14;99136.16;;;7.24;100.00
48624;BME280;34422;45.802;16.114;2023-04-15T00:07:41;99138.56;;;7.32;100.00
48624;BME280;34422;45.802;16.114;2023-04-15T00:10:08;99136.28;;;7.36;100.00
48624;BME280;34422;45.802;16.114;2023-04-15T00:12:35;99134.41;;;7.36;100.00
48624;BME280;34422;45.802;16.114;2023-04-15T00:15:02;99132.19;;;7.27;100.00
48624;BME280;34422;45.802;16.114;2023-04-15T00:17:29;99127.63;;;7.27;100.00
48624;BME280;34422;45.802;16.114;2023-04-15T00:19:56;99136.59;;;7.21;100.00
48624;BME280;34422;45.802;16.114;2023-04-15T00:22:28;99136.75;;;7.26;100.00
48624;BME280;34422;45.802;16.114;2023-04-15T00:24:54;99122.88;;;7.29;100.00
48624;BME280;34422;45.802;16.114;2023-04-15T00:27:21;99125.94;;;7.08;100.00
48624;BME280;34422;45.802;16.114;2023-04-15T00:29:48;99130.69;;;7.06;100.00
48624;BME280;34422;45.802;16.114;2023-04-15T00:32:15;99137.88;;;7.12;100.00
48624;BME280;34422;45.802;16.114;2023-04-15T00:34:42;99142.41;;;7.18;100.00
48624;BME280;34422;45.802;16.114;2023-04-15T00:37:09;99134.56;;;7.17;100.00
48624;BME280;34422;45.802;16.114;2023-04-15T00:39:36;99150.66;;;7.23;100.00
48624;BME280;34422;45.802;16.114;2023-04-15T00:42:03;99144.38;;;7.29;100.00
48624;BME280;34422;45.802;16.114;2023-04-15T00:44:30;99151.75;;;7.40;100.00
48624;BME280;34422;45.802;16.114;2023-04-15T00:46:58;99147.41;;;7.39;100.00
48624;BME280;34422;45.802;16.114;2023-04-15T00:49:25;99146.84;;;7.37;100.00
48624;BME280;34422;45.802;16.114;2023-04-15T00:51:54;99140.16;;;7.40;100.00
48624;BME280;34422;45.802;16.114;2023-04-15T00:54:21;99137.94;;;7.37;100.00
48624;BME280;34422;45.802;16.114;2023-04-15T00:56:48;99151.13;;;7.38;100.00
48624;BME280;34422;45.802;16.114;2023-04-15T00:59:16;99140.16;;;7.40;100.00
48624;BME280;34422;45.802;16.114;2023-04-15T01:01:44;99130.44;;;7.39;100.00
48624;BME280;34422;45.802;16.114;2023-04-15T01:04:10;99136.94;;;7.31;100.00
48624;BME280;34422;45.802;16.114;2023-04-15T01:06:37;99127.00;;;7.32;100.00
48624;BME280;34422;45.802;16.114;2023-04-15T01:09:04;99125.72;;;7.34;100.00
48624;BME280;34422;45.802;16.114;2023-04-15T01:11:31;99136.09;;;7.31;100.00
48624;BME280;34422;45.802;16.114;2023-04-15T01:13:59;99145.63;;;7.33;100.00
48624;BME280;34422;45.802;16.114;2023-04-15T01:16:27;99133.59;;;7.36;100.00
48624;BME280;34422;45.802;16.114;2023-04-15T01:18:54;99137.75;;;7.32;100.00
48624;BME280;34422;45.802;16.114;2023-04-15T01:21:21;99141.56;;;7.24;100.00
48624;BME280;34422;45.802;16.114;2023-04-15T01:23:49;99132.88;;;7.22;100.00
48624;BME280;34422;45.802;16.114;2023-04-15T01:26:16;99136.16;;;7.24;100.00
48624;BME280;34422;45.802;16.114;2023-04-15T01:28:43;99133.69;;;7.23;100.00
48624;BME280;34422;45.802;16.114;2023-04-15T01:31:13;99132.88;;;7.22;100.00
48624;BME280;34422;45.802;16.114;2023-04-15T01:33:41;99138.41;;;7.27;100.00
48624;BME280;34422;45.802;16.114;2023-04-15T01:36:09;99141.06;;;7.34;100.00
48624;BME280;34422;45.802;16.114;2023-04-15T01:38:36;99130.69;;;7.37;100.00
48624;BME280;34422;45.802;16.114;2023-04-15T01:41:03;99132.16;;;7.33;100.00
48624;BME280;34422;45.802;16.114;2023-04-15T01:43:33;99132.78;;;7.35;100.00
48624;BME280;34422;45.802;16.114;2023-04-15T01:46:01;99133.22;;;7.26;100.00
48624;BME280;34422;45.802;16.114;2023-04-15T01:48:28;99128.25;;;7.29;100.00
48624;BME280;34422;45.802;16.114;2023-04-15T01:50:55;99135.72;;;7.27;100.00
48624;BME280;34422;45.802;16.114;2023-04-15T01:53:24;99129.91;;;7.30;100.00
48624;BME280;34422;45.802;16.114;2023-04-15T01:55:51;99129.97;;;7.24;100.00
48624;BME280;34422;45.802;16.114;2023-04-15T01:58:18;99122.53;;;7.19;100.00
48624;BME280;34422;45.802;16.114;2023-04-15T02:00:45;99129.16;;;7.17;100.00
48624;BME280;34422;45.802;16.114;2023-04-15T02:03:11;99125.03;;;7.14;100.00
48624;BME280;34422;45.802;16.114;2023-04-15T02:05:38;99133.94;;;7.14;100.00
48624;BME280;34422;45.802;16.114;2023-04-15T02:08:05;99129.25;;;7.10;100.00
48624;BME280;34422;45.802;16.114;2023-04-15T02:10:32;99132.06;;;7.15;100.00
48624;BME280;34422;45.802;16.114;2023-04-15T02:12:58;99128.34;;;7.16;100.00
48624;BME280;34422;45.802;16.114;2023-04-15T02:15:25;99126.28;;;7.18;100.00
48624;BME280;34422;45.802;16.114;2023-04-15T02:17:52;99130.44;;;7.14;100.00
48624;BME280;34422;45.802;16.114;2023-04-15T02:20:20;99124.69;;;7.10;100.00
48624;BME280;34422;45.802;16.114;2023-04-15T02:22:48;99125.94;;;7.08;100.00
48624;BME280;34422;45.802;16.114;2023-04-15T02:25:14;99118.13;;;7.00;100.00
48624;BME280;34422;45.802;16.114;2023-04-15T02:27:42;99121.41;;;7.02;100.00
48624;BME280;34422;45.802;16.114;2023-04-15T02:30:12;99122.31;;;6.96;100.00
48624;BME280;34422;45.802;16.114;2023-04-15T02:32:39;99117.56;;;6.91;100.00
48624;BME280;34422;45.802;16.114;2023-04-15T02:35:07;99116.91;;;6.96;100.00
48624;BME280;34422;45.802;16.114;2023-04-15T02:37:35;99119.00;;;6.94;100.00
48624;BME280;34422;45.802;16.114;2023-04-15T02:40:08;99112.13;;;6.98;100.00
48624;BME280;34422;45.802;16.114;2023-04-15T02:42:40;99115.69;;;6.92;100.00
48624;BME280;34422;45.802;16.114;2023-04-15T02:45:07;99109.69;;;6.96;100.00
48624;BME280;34422;45.802;16.114;2023-04-15T02:47:34;99108.41;;;6.99;100.00
48624;BME280;34422;45.802;16.114;2023-04-15T02:50:07;99113.63;;;6.94;100.00
48624;BME280;34422;45.802;16.114;2023-04-15T02:52:34;99093.75;;;6.95;100.00
48624;BME280;34422;45.802;16.114;2023-04-15T02:55:01;99103.72;;;6.88;100.00
48624;BME280;34422;45.802;16.114;2023-04-15T02:57:28;99096.88;;;6.92;100.00
48624;BME280;34422;45.802;16.114;2023-04-15T02:59:57;99100.53;;;6.97;100.00
48624;BME280;34422;45.802;16.114;2023-04-15T03:02:24;99110.25;;;6.98;100.00
48624;BME280;34422;45.802;16.114;2023-04-15T03:04:51;99113.00;;;6.92;100.00
48624;BME280;34422;45.802;16.114;2023-04-15T03:07:18;99111.25;;;6.72;100.00
48624;BME280;34422;45.802;16.114;2023-04-15T03:09:45;99119.16;;;6.67;100.00
48624;BME280;34422;45.802;16.114;2023-04-15T03:12:13;99103.19;;;6.72;100.00
48624;BME280;34422;45.802;16.114;2023-04-15T03:14:39;99107.94;;;6.70;100.00
48624;BME280;34422;45.802;16.114;2023-04-15T03:17:07;99102.56;;;6.70;100.00
48624;BME280;34422;45.802;16.114;2023-04-15T03:19:33;99094.34;;;6.65;100.00
48624;BME280;34422;45.802;16.114;2023-04-15T03:22:00;99104.28;;;6.65;100.00
48624;BME280;34422;45.802;16.114;2023-04-15T03:24:27;99103.47;;;6.64;100.00
48624;BME280;34422;45.802;16.114;2023-04-15T03:26:56;99108.41;;;6.67;100.00
48624;BME280;34422;45.802;16.114;2023-04-15T03:29:23;99104.69;;;6.68;100.00
48624;BME280;34422;45.802;16.114;2023-04-15T03:31:51;99108.00;;;6.64;100.00
48624;BME280;34422;45.802;16.114;2023-04-15T03:34:17;99112.63;;;6.50;100.00
48624;BME280;34422;45.802;16.114;2023-04-15T03:36:45;99109.75;;;6.45;100.00
48624;BME280;34422;45.802;16.114;2023-04-15T03:39:12;99109.75;;;6.45;100.00
48624;BME280;34422;45.802;16.114;2023-04-15T03:41:39;99110.63;;;6.39;100.00
48624;BME280;34422;45.802;16.114;2023-04-15T03:44:05;99108.97;;;6.38;100.00
48624;BME280;34422;45.802;16.114;2023-04-15T03:46:32;99107.75;;;6.34;100.00
48624;BME280;34422;45.802;16.114;2023-04-15T03:48:59;99111.88;;;6.30;100.00
48624;BME280;34422;45.802;16.114;2023-04-15T03:51:26;99115.59;;;6.29;100.00
48624;BME280;34422;45.802;16.114;2023-04-15T03:53:52;99113.56;;;6.24;100.00
48624;BME280;34422;45.802;16.114;2023-04-15T03:56:19;99114.00;;;6.21;100.00
48624;BME280;34422;45.802;16.114;2023-04-15T03:58:46;99115.22;;;6.19;100.00
48624;BME280;34422;45.802;16.114;2023-04-15T04:01:13;99111.09;;;6.16;100.00
48624;BME280;34422;45.802;16.114;2023-04-15T04:03:39;99113.59;;;6.18;100.00
48624;BME280;34422;45.802;16.114;2023-04-15T04:06:07;99115.22;;;6.19;100.00
48624;BME280;34422;45.802;16.114;2023-04-15T04:08:33;99111.91;;;6.23;100.00
48624;BME280;34422;45.802;16.114;2023-04-15T04:11:00;99112.34;;;6.20;100.00
48624;BME280;34422;45.802;16.114;2023-04-15T04:13:27;99116.47;;;6.23;100.00
48624;BME280;34422;45.802;16.114;2023-04-15T04:15:54;99113.16;;;6.21;100.00
48624;BME280;34422;45.802;16.114;2023-04-15T04:18:20;99117.28;;;6.23;100.00
48624;BME280;34422;45.802;16.114;2023-04-15T04:20:47;99111.88;;;6.30;100.00
48624;BME280;34422;45.802;16.114;2023-04-15T04:23:14;99106.91;;;6.33;100.00
48624;BME280;34422;45.802;16.114;2023-04-15T04:25:41;99113.72;;;6.36;100.00
48624;BME280;34422;45.802;16.114;2023-04-15T04:28:07;99110.84;;;6.31;100.00
48624;BME280;34422;45.802;16.114;2023-04-15T04:30:34;99125.94;;;6.32;100.00
48624;BME280;34422;45.802;16.114;2023-04-15T04:33:01;99129.44;;;6.32;100.00
48624;BME280;34422;45.802;16.114;2023-04-15T04:35:28;99129.84;;;6.36;100.00
48624;BME280;34422;45.802;16.114;2023-04-15T04:37:54;99127.94;;;6.43;100.00
48624;BME280;34422;45.802;16.114;2023-04-15T04:40:22;99127.56;;;6.39;100.00
48624;BME280;34422;45.802;16.114;2023-04-15T04:42:48;99131.66;;;6.49;100.00
48624;BME280;34422;45.802;16.114;2023-04-15T04:45:15;99139.50;;;6.50;100.00
48624;BME280;34422;45.802;16.114;2023-04-15T04:47:42;99135.78;;;6.51;100.00
48624;BME280;34422;45.802;16.114;2023-04-15T04:50:09;99137.44;;;6.52;100.00
48624;BME280;34422;45.802;16.114;2023-04-15T04:52:36;99138.28;;;6.46;100.00
48624;BME280;34422;45.802;16.114;2023-04-15T04:55:03;99137.84;;;6.49;100.00
48624;BME280;34422;45.802;16.114;2023-04-15T04:57:30;99138.34;;;6.71;100.00
48624;BME280;34422;45.802;16.114;2023-04-15T04:59:56;99139.84;;;6.67;100.00
48624;BME280;34422;45.802;16.114;2023-04-15T05:02:23;99143.78;;;6.64;100.00
48624;BME280;34422;45.802;16.114;2023-04-15T05:04:52;99137.00;;;6.55;100.00
48624;BME280;34422;45.802;16.114;2023-04-15T05:07:20;99134.38;;;6.42;100.00
48624;BME280;34422;45.802;16.114;2023-04-15T05:09:46;99133.31;;;6.43;100.00
48624;BME280;34422;45.802;16.114;2023-04-15T05:12:13;99135.44;;;6.34;100.00
48624;BME280;34422;45.802;16.114;2023-04-15T05:14:40;99127.41;;;6.28;100.00
48624;BME280;34422;45.802;16.114;2023-04-15T05:17:07;99135.84;;;6.31;100.00
48624;BME280;34422;45.802;16.114;2023-04-15T05:19:34;99133.31;;;6.43;100.00
48624;BME280;34422;45.802;16.114;2023-04-15T05:22:01;99131.78;;;6.60;100.00
48624;BME280;34422;45.802;16.114;2023-04-15T05:24:28;99136.56;;;6.58;100.00
48624;BME280;34422;45.802;16.114;2023-04-15T05:26:55;99134.84;;;6.70;100.00
48624;BME280;34422;45.802;16.114;2023-04-15T05:29:22;99136.03;;;6.81;100.00
48624;BME280;34422;45.802;16.114;2023-04-15T05:31:49;99136.78;;;6.95;100.00
48624;BME280;34422;45.802;16.114;2023-04-15T05:34:16;99143.81;;;6.96;100.00
48624;BME280;34422;45.802;16.114;2023-04-15T05:36:43;99140.84;;;7.04;100.00
48624;BME280;34422;45.802;16.114;2023-04-15T05:39:09;99146.97;;;7.18;100.00
48624;BME280;34422;45.802;16.114;2023-04-15T05:41:36;99147.50;;;7.26;100.00
48624;BME280;34422;45.802;16.114;2023-04-15T05:44:03;99153.91;;;7.32;100.00
48624;BME280;34422;45.802;16.114;2023-04-15T05:46:30;99157.53;;;7.44;100.00
48624;BME280;34422;45.802;16.114;2023-04-15T05:48:57;99151.28;;;7.50;100.00
48624;BME280;34422;45.802;16.114;2023-04-15T05:51:24;99152.84;;;7.58;100.00
48624;BME280;34422;45.802;16.114;2023-04-15T05:53:51;99163.81;;;7.81;100.00
48624;BME280;34422;45.802;16.114;2023-04-15T05:56:18;99168.03;;;7.77;100.00
48624;BME280;34422;45.802;16.114;2023-04-15T05:58:46;99161.00;;;7.76;100.00
48624;BME280;34422;45.802;16.114;2023-04-15T06:01:12;99165.03;;;7.85;100.00
48624;BME280;34422;45.802;16.114;2023-04-15T06:03:39;99161.22;;;7.93;100.00
48624;BME280;34422;45.802;16.114;2023-04-15T06:06:06;99170.00;;;8.06;100.00
48624;BME280;34422;45.802;16.114;2023-04-15T06:08:33;99165.97;;;8.15;100.00
48624;BME280;34422;45.802;16.114;2023-04-15T06:11:00;99168.38;;;8.24;100.00
48624;BME280;34422;45.802;16.114;2023-04-15T06:13:26;99171.38;;;8.15;100.00
48624;BME280;34422;45.802;16.114;2023-04-15T06:15:53;99177.72;;;8.21;100.00
48624;BME280;34422;45.802;16.114;2023-04-15T06:18:20;99168.75;;;8.27;100.00
48624;BME280;34422;45.802;16.114;2023-04-15T06:20:47;99176.06;;;8.45;100.00
48624;BME280;34422;45.802;16.114;2023-04-15T06:23:13;99175.72;;;8.35;100.00
48624;BME280;34422;45.802;16.114;2023-04-15T06:25:40;99175.41;;;8.61;100.00
48624;BME280;34422;45.802;16.114;2023-04-15T06:28:07;99186.13;;;8.68;100.00
48624;BME280;34422;45.802;16.114;2023-04-15T06:30:33;99187.56;;;8.52;100.00
48624;BME280;34422;45.802;16.114;2023-04-15T06:33:01;99189.44;;;8.51;100.00
48624;BME280;34422;45.802;16.114;2023-04-15T06:35:31;99189.97;;;8.60;100.00
48624;BME280;34422;45.802;16.114;2023-04-15T06:37:57;99190.69;;;8.67;100.00
48624;BME280;34422;45.802;16.114;2023-04-15T06:40:24;99189.66;;;8.50;100.00
48624;BME280;34422;45.802;16.114;2023-04-15T06:42:51;99192.81;;;8.65;100.00
48624;BME280;34422;45.802;16.114;2023-04-15T06:45:18;99188.00;;;8.49;100.00
48624;BME280;34422;45.802;16.114;2023-04-15T06:47:44;99188.38;;;8.52;100.00
48624;BME280;34422;45.802;16.114;2023-04-15T06:50:11;99190.47;;;8.50;100.00
48624;BME280;34422;45.802;16.114;2023-04-15T06:52:39;99194.88;;;8.63;100.00
48624;BME280;34422;45.802;16.114;2023-04-15T06:55:06;99196.53;;;8.64;100.00
48624;BME280;34422;45.802;16.114;2023-04-15T06:57:33;99196.38;;;8.77;100.00
48624;BME280;34422;45.802;16.114;2023-04-15T07:00:00;99203.19;;;8.62;100.00
48624;BME280;34422;45.802;16.114;2023-04-15T07:02:27;99206.59;;;8.57;100.00
48624;BME280;34422;45.802;16.114;2023-04-15T07:04:54;99203.13;;;8.68;100.00
48624;BME280;34422;45.802;16.114;2023-04-15T07:07:21;99207.31;;;8.82;100.00
48624;BME280;34422;45.802;16.114;2023-04-15T07:09:47;99215.50;;;9.06;100.00
48624;BME280;34422;45.802;16.114;2023-04-15T07:12:14;99216.97;;;9.20;100.00
48624;BME280;34422;45.802;16.114;2023-04-15T07:14:41;99222.56;;;9.07;100.00
48624;BME280;34422;45.802;16.114;2023-04-15T07:17:09;99238.84;;;9.30;100.00
48624;BME280;34422;45.802;16.114;2023-04-15T07:19:36;99224.69;;;9.46;100.00
48624;BME280;34422;45.802;16.114;2023-04-15T07:22:02;99235.47;;;9.35;100.00
48624;BME280;34422;45.802;16.114;2023-04-15T07:24:29;99237.75;;;9.19;100.00
48624;BME280;34422;45.802;16.114;2023-04-15T07:26:56;99235.19;;;9.54;100.00
48624;BME280;34422;45.802;16.114;2023-04-15T07:29:24;99245.66;;;9.74;100.00
48624;BME280;34422;45.802;16.114;2023-04-15T07:31:51;99254.50;;;9.93;100.00
48624;BME280;34422;45.802;16.114;2023-04-15T07:34:18;99250.03;;;9.87;100.00
48624;BME280;34422;45.802;16.114;2023-04-15T07:36:46;99251.00;;;10.16;100.00
48624;BME280;34422;45.802;16.114;2023-04-15T07:39:17;99251.34;;;9.96;100.00
48624;BME280;34422;45.802;16.114;2023-04-15T07:41:43;99258.78;;;9.59;100.00
48624;BME280;34422;45.802;16.114;2023-04-15T07:44:10;99246.94;;;9.72;100.00
48624;BME280;34422;45.802;16.114;2023-04-15T07:46:37;99252.19;;;10.08;100.00
48624;BME280;34422;45.802;16.114;2023-04-15T07:49:04;99256.63;;;10.14;100.00
48624;BME280;34422;45.802;16.114;2023-04-15T07:51:30;99259.97;;;10.51;100.00
48624;BME280;34422;45.802;16.114;2023-04-15T07:53:57;99250.06;;;10.68;100.00
48624;BME280;34422;45.802;16.114;2023-04-15T07:56:24;99263.31;;;11.22;100.00
48624;BME280;34422;45.802;16.114;2023-04-15T07:58:52;99264.91;;;11.63;100.00
48624;BME280;34422;45.802;16.114;2023-04-15T08:01:18;99264.31;;;11.89;100.00
48624;BME280;34422;45.802;16.114;2023-04-15T08:03:45;99263.25;;;12.24;100.00
48624;BME280;34422;45.802;16.114;2023-04-15T08:06:12;99270.72;;;12.33;100.00
48624;BME280;34422;45.802;16.114;2023-04-15T08:08:39;99271.41;;;12.24;100.00
48624;BME280;34422;45.802;16.114;2023-04-15T08:11:07;99271.56;;;12.00;100.00
48624;BME280;34422;45.802;16.114;2023-04-15T08:13:34;99274.56;;;11.42;100.00
48624;BME280;34422;45.802;16.114;2023-04-15T08:16:21;99273.78;;;11.30;100.00
48624;BME280;34422;45.802;16.114;2023-04-15T08:18:50;99270.78;;;11.15;100.00
48624;BME280;34422;45.802;16.114;2023-04-15T08:21:17;99276.88;;;11.50;100.00
48624;BME280;34422;45.802;16.114;2023-04-15T08:23:46;99278.50;;;11.51;100.00
48624;BME280;34422;45.802;16.114;2023-04-15T08:26:15;99275.66;;;11.58;100.00
48624;BME280;34422;45.802;16.114;2023-04-15T08:28:43;99279.00;;;11.48;100.00
48624;BME280;34422;45.802;16.114;2023-04-15T08:31:11;99289.03;;;11.48;100.00
48624;BME280;34422;45.802;16.114;2023-04-15T08:33:38;99283.84;;;11.74;100.00
48624;BME280;34422;45.802;16.114;2023-04-15T08:36:05;99295.56;;;12.42;100.00
48624;BME280;34422;45.802;16.114;2023-04-15T08:38:33;99288.25;;;12.81;100.00
48624;BME280;34422;45.802;16.114;2023-04-15T08:41:03;99281.34;;;13.34;100.00
48624;BME280;34422;45.802;16.114;2023-04-15T08:43:34;99284.78;;;13.51;100.00
48624;BME280;34422;45.802;16.114;2023-04-15T08:46:01;99290.09;;;13.41;100.00
48624;BME280;34422;45.802;16.114;2023-04-15T08:48:35;99294.38;;;13.59;100.00
48624;BME280;34422;45.802;16.114;2023-04-15T08:51:04;99295.69;;;13.56;100.00
48624;BME280;34422;45.802;16.114;2023-04-15T08:53:31;99292.13;;;13.50;100.00
48624;BME280;34422;45.802;16.114;2023-04-15T08:56:03;99298.78;;;13.65;100.00
48624;BME280;34422;45.802;16.114;2023-04-15T08:58:31;99291.16;;;13.40;100.00
48624;BME280;34422;45.802;16.114;2023-04-15T09:00:58;99288.81;;;13.22;100.00
48624;BME280;34422;45.802;16.114;2023-04-15T09:03:26;99306.09;;;13.15;100.00
48624;BME280;34422;45.802;16.114;2023-04-15T09:05:54;99301.09;;;13.29;100.00
48624;BME280;34422;45.802;16.114;2023-04-15T09:08:21;99303.50;;;13.47;100.00
48624;BME280;34422;45.802;16.114;2023-04-15T09:10:48;99308.72;;;13.54;100.00
48624;BME280;34422;45.802;16.114;2023-04-15T09:13:15;99310.34;;;13.55;100.00
48624;BME280;34422;45.802;16.114;2023-04-15T09:15:42;99313.88;;;13.77;100.00
48624;BME280;34422;45.802;16.114;2023-04-15T09:18:11;99321.16;;;13.99;100.00
48624;BME280;34422;45.802;16.114;2023-04-15T09:20:40;99319.88;;;14.06;100.00
48624;BME280;34422;45.802;16.114;2023-04-15T09:23:13;99323.44;;;14.12;100.00
48624;BME280;34422;45.802;16.114;2023-04-15T09:25:40;99318.34;;;13.18;100.00
48624;BME280;34422;45.802;16.114;2023-04-15T09:28:10;99323.16;;;13.33;100.00
48624;BME280;34422;45.802;16.114;2023-04-15T09:30:37;99321.38;;;13.92;100.00
48624;BME280;34422;45.802;16.114;2023-04-15T09:33:04;99320.91;;;14.32;100.00
48624;BME280;34422;45.802;16.114;2023-04-15T09:35:36;99312.31;;;13.86;100.00
48624;BME280;34422;45.802;16.114;2023-04-15T09:38:08;99328.59;;;13.81;100.00
48624;BME280;34422;45.802;16.114;2023-04-15T09:40:41;99322.88;;;13.56;100.00
48624;BME280;34422;45.802;16.114;2023-04-15T09:43:09;99323.00;;;14.20;100.00
48624;BME280;34422;45.802;16.114;2023-04-15T09:45:38;99328.84;;;14.71;100.00
48624;BME280;34422;45.802;16.114;2023-04-15T09:48:20;99333.09;;;14.56;100.00
48624;BME280;34422;45.802;16.114;2023-04-15T09:50:48;99332.69;;;14.80;100.00
48624;BME280;34422;45.802;16.114;2023-04-15T09:53:20;99330.66;;;14.28;100.00
48624;BME280;34422;45.802;16.114;2023-04-15T09:55:51;99323.13;;;13.76;100.00
48624;BME280;34422;45.802;16.114;2023-04-15T09:58:25;99329.84;;;13.47;100.00
48624;BME280;34422;45.802;16.114;2023-04-15T10:00:54;99327.06;;;12.43;100.00
48624;BME280;34422;45.802;16.114;2023-04-15T10:05:54;99321.53;;;12.55;100.00
48624;BME280;34422;45.802;16.114;2023-04-15T10:08:23;99319.53;;;12.50;100.00
48624;BME280;34422;45.802;16.114;2023-04-15T10:10:51;99313.75;;;12.80;100.00
48624;BME280;34422;45.802;16.114;2023-04-15T10:13:20;99325.59;;;12.74;100.00
48624;BME280;34422;45.802;16.114;2023-04-15T10:15:56;99317.63;;;13.06;100.00
48624;BME280;34422;45.802;16.114;2023-04-15T10:18:25;99316.88;;;13.10;100.00
48624;BME280;34422;45.802;16.114;2023-04-15T10:20:53;99317.66;;;13.76;100.00
48624;BME280;34422;45.802;16.114;2023-04-15T10:23:21;99312.75;;;14.37;100.00
48624;BME280;34422;45.802;16.114;2023-04-15T10:25:51;99315.22;;;14.39;100.00
48624;BME280;34422;45.802;16.114;2023-04-15T10:28:19;99311.31;;;14.56;100.00
48624;BME280;34422;45.802;16.114;2023-04-15T10:30:47;99311.91;;;14.64;100.00
48624;BME280;34422;45.802;16.114;2023-04-15T10:33:16;99317.22;;;14.43;100.00
48624;BME280;34422;45.802;16.114;2023-04-15T10:35:44;99319.09;;;13.57;100.00
48624;BME280;34422;45.802;16.114;2023-04-15T10:38:39;99320.22;;;13.61;100.00
48624;BME280;34422;45.802;16.114;2023-04-15T10:46:17;99314.28;;;13.64;100.00
48624;BME280;34422;45.802;16.114;2023-04-15T10:48:51;99318.09;;;13.63;100.00
48624;BME280;34422;45.802;16.114;2023-04-15T10:51:29;99314.13;;;13.27;100.00
48624;BME280;34422;45.802;16.114;2023-04-15T10:53:59;99323.16;;;13.33;100.00
48624;BME280;34422;45.802;16.114;2023-04-15T10:56:29;99327.31;;;13.19;100.00
48624;BME280;34422;45.802;16.114;2023-04-15T10:59:00;99324.97;;;13.27;100.00
48624;BME280;34422;45.802;16.114;2023-04-15T11:01:50;99324.16;;;13.27;100.00
48624;BME280;34422;45.802;16.114;2023-04-15T11:12:44;99322.03;;;13.12;100.00
48624;BME280;34422;45.802;16.114;2023-04-15T11:15:31;99318.22;;;13.30;100.00
48624;BME280;34422;45.802;16.114;2023-04-15T11:18:12;99315.47;;;13.25;100.00
48624;BME280;34422;45.802;16.114;2023-04-15T11:20:58;99319.72;;;13.64;100.00
48624;BME280;34422;45.802;16.114;2023-04-15T11:23:40;99310.25;;;13.94;100.00
48624;BME280;34422;45.802;16.114;2023-04-15T11:26:13;99308.94;;;14.01;100.00
48624;BME280;34422;45.802;16.114;2023-04-15T11:28:44;99304.91;;;14.09;100.00
48624;BME280;34422;45.802;16.114;2023-04-15T11:31:16;99310.25;;;13.94;100.00
48624;BME280;34422;45.802;16.114;2023-04-15T11:33:54;99300.63;;;14.45;100.00
48624;BME280;34422;45.802;16.114;2023-04-15T11:36:23;99301.56;;;14.66;100.00
48624;BME280;34422;45.802;16.114;2023-04-15T11:38:51;99296.00;;;14.50;93.67
48624;BME280;34422;45.802;16.114;2023-04-15T11:41:24;99308.13;;;14.70;84.95
48624;BME280;34422;45.802;16.114;2023-04-15T11:43:51;99305.06;;;14.56;89.36
48624;BME280;34422;45.802;16.114;2023-04-15T11:46:19;99301.91;;;14.74;93.50
48624;BME280;34422;45.802;16.114;2023-04-15T11:48:47;99302.53;;;14.44;97.81
48624;BME280;34422;45.802;16.114;2023-04-15T11:51:14;99300.44;;;14.56;79.47
48624;BME280;34422;45.802;16.114;2023-04-15T11:53:48;99302.16;;;14.73;70.78
48624;BME280;34422;45.802;16.114;2023-04-15T11:56:20;99292.75;;;14.48;71.92
48624;BME280;34422;45.802;16.114;2023-04-15T11:58:51;99296.38;;;15.11;69.82
48624;BME280;34422;45.802;16.114;2023-04-15T12:01:18;99287.78;;;15.50;67.96
48624;BME280;34422;45.802;16.114;2023-04-15T12:03:46;99294.44;;;15.69;64.80
48624;BME280;34422;45.802;16.114;2023-04-15T12:11:15;99304.13;;;14.40;76.47
48624;BME280;34422;45.802;16.114;2023-04-15T12:13:47;99320.25;;;14.20;82.26
48624;BME280;34422;45.802;16.114;2023-04-15T12:16:21;99330.19;;;14.04;88.63
48624;BME280;34422;45.802;16.114;2023-04-15T12:18:52;99345.94;;;13.75;88.61
48624;BME280;34422;45.802;16.114;2023-04-15T12:21:21;99353.78;;;13.28;88.19
48624;BME280;34422;45.802;16.114;2023-04-15T12:23:49;99381.66;;;13.19;100.00
48624;BME280;34422;45.802;16.114;2023-04-15T12:26:17;99369.75;;;12.19;100.00
48624;BME280;34422;45.802;16.114;2023-04-15T12:28:44;99364.94;;;11.93;100.00
48624;BME280;34422;45.802;16.114;2023-04-15T12:31:13;99372.31;;;12.09;100.00
48624;BME280;34422;45.802;16.114;2023-04-15T12:33:40;99368.25;;;11.95;100.00
48624;BME280;34422;45.802;16.114;2023-04-15T12:36:06;99363.78;;;11.60;100.00
48624;BME280;34422;45.802;16.114;2023-04-15T12:38:33;99355.38;;;11.73;100.00
48624;BME280;34422;45.802;16.114;2023-04-15T12:41:00;99361.38;;;11.75;100.00
48624;BME280;34422;45.802;16.114;2023-04-15T12:43:27;99375.16;;;11.74;100.00
48624;BME280;34422;45.802;16.114;2023-04-15T12:45:54;99373.09;;;11.93;100.00
48624;BME280;34422;45.802;16.114;2023-04-15T12:48:21;99367.19;;;11.96;100.00
48624;BME280;34422;45.802;16.114;2023-04-15T12:50:47;99360.59;;;11.92;100.00
48624;BME280;34422;45.802;16.114;2023-04-15T12:53:14;99353.63;;;11.96;100.00
48624;BME280;34422;45.802;16.114;2023-04-15T12:55:41;99351.94;;;12.23;100.00
48624;BME280;34422;45.802;16.114;2023-04-15T12:58:07;99341.59;;;12.54;100.00
48624;BME280;34422;45.802;16.114;2023-04-15T13:00:34;99329.03;;;12.86;100.00
48624;BME280;34422;45.802;16.114;2023-04-15T13:03:01;99322.81;;;13.07;100.00
48624;BME280;34422;45.802;16.114;2023-04-15T13:05:28;99334.25;;;13.09;100.00
48624;BME280;34422;45.802;16.114;2023-04-15T13:07:54;99344.06;;;13.32;100.00
48624;BME280;34422;45.802;16.114;2023-04-15T13:10:22;99342.13;;;13.49;100.00